EAG5508 SGAS-SAEZ
Flight info
| Callsign | EAG5508 |
|---|---|
| Flight time | 1h 30m |
| Altitude | 32000 |
| Route | ITAPE ASATI UP526 GEMSU UN785 GUA UZ129 PAGON PAGON7X |
| Aircraft | A306/H-SDE3FGHIRWY/LB1 |
Departure
| Time | 2026-05-06 13:44 |
|---|---|
| Airport | Silvio Pettirossi International Airport (SGAS) |
Arrival
| Time | 2026-05-06 15:14 |
|---|---|
| Airport | Ezeiza International Airport - Ministro Pistarini (SAEZ) |
| Time | Latitude | Longitude | Altitude | Speed | Heading |
|---|---|---|---|---|---|
| 2026-05-06 13:27 | -25.24126 | -57.51498 | 284 ft | 0 kts | 108° |
| 2026-05-06 13:34 | -25.24124 | -57.51505 | 287 ft | 4 kts | 111° |
| 2026-05-06 13:34 | -25.24115 | -57.51531 | 292 ft | 4 kts | 110° |
| 2026-05-06 13:34 | -25.24106 | -57.51559 | 290 ft | 4 kts | 110° |
| 2026-05-06 13:34 | -25.24100 | -57.51577 | 287 ft | 1 kts | 112° |
| 2026-05-06 13:35 | -25.24099 | -57.51580 | 287 ft | 0 kts | 112° |
| 2026-05-06 13:37 | -25.24117 | -57.51574 | 292 ft | 4 kts | 191° |
| 2026-05-06 13:37 | -25.24160 | -57.51608 | 285 ft | 11 kts | 213° |
| 2026-05-06 13:37 | -25.24253 | -57.51643 | 285 ft | 15 kts | 186° |
| 2026-05-06 13:37 | -25.24345 | -57.51682 | 285 ft | 14 kts | 229° |
| 2026-05-06 13:38 | -25.24398 | -57.51766 | 285 ft | 13 kts | 237° |
| 2026-05-06 13:38 | -25.24467 | -57.51811 | 285 ft | 11 kts | 193° |
| 2026-05-06 13:38 | -25.24552 | -57.51830 | 285 ft | 16 kts | 192° |
| 2026-05-06 13:38 | -25.24660 | -57.51857 | 285 ft | 16 kts | 192° |
| 2026-05-06 13:39 | -25.24765 | -57.51884 | 285 ft | 15 kts | 194° |
| 2026-05-06 13:39 | -25.24864 | -57.51908 | 285 ft | 14 kts | 192° |
| 2026-05-06 13:39 | -25.24959 | -57.51930 | 285 ft | 14 kts | 192° |
| 2026-05-06 13:39 | -25.25049 | -57.51952 | 285 ft | 13 kts | 192° |
| 2026-05-06 13:40 | -25.25133 | -57.51971 | 285 ft | 12 kts | 192° |
| 2026-05-06 13:40 | -25.25212 | -57.51991 | 285 ft | 11 kts | 193° |
| 2026-05-06 13:40 | -25.25287 | -57.52010 | 285 ft | 11 kts | 193° |
| 2026-05-06 13:40 | -25.25356 | -57.52026 | 285 ft | 10 kts | 191° |
| 2026-05-06 13:41 | -25.25420 | -57.52040 | 286 ft | 9 kts | 191° |
| 2026-05-06 13:41 | -25.25479 | -57.52079 | 286 ft | 10 kts | 244° |
| 2026-05-06 13:41 | -25.25478 | -57.52140 | 288 ft | 6 kts | 281° |
| 2026-05-06 13:41 | -25.25476 | -57.52152 | 291 ft | 0 kts | 282° |
| 2026-05-06 13:42 | -25.25472 | -57.52170 | 291 ft | 7 kts | 283° |
| 2026-05-06 13:42 | -25.25461 | -57.52224 | 293 ft | 9 kts | 282° |
| 2026-05-06 13:43 | -25.25418 | -57.52258 | 296 ft | 8 kts | 4° |
| 2026-05-06 13:43 | -25.25401 | -57.52255 | 296 ft | 0 kts | 13° |
| 2026-05-06 13:43 | -25.25319 | -57.52235 | 294 ft | 45 kts | 12° |
| 2026-05-06 13:43 | -25.24764 | -57.52100 | 294 ft | 115 kts | 12° |
| 2026-05-06 13:44 | -25.23786 | -57.51861 | 286 ft | 172 kts | 12° |
| 2026-05-06 13:44 | -25.22531 | -57.51564 | 887 ft | 186 kts | 14° |
| 2026-05-06 13:44 | -25.21293 | -57.51246 | 2070 ft | 177 kts | 12° |
| 2026-05-06 13:44 | -25.20143 | -57.50881 | 3284 ft | 169 kts | 15° |
| 2026-05-06 13:45 | -25.19034 | -57.50386 | 4187 ft | 179 kts | 14° |
| 2026-05-06 13:45 | -25.16229 | -57.50240 | 4963 ft | 226 kts | 357° |
| 2026-05-06 13:45 | -25.14611 | -57.50300 | 5469 ft | 238 kts | 357° |
| 2026-05-06 13:46 | -25.12932 | -57.50362 | 6351 ft | 243 kts | 357° |
| 2026-05-06 13:46 | -25.11241 | -57.50175 | 7307 ft | 250 kts | 15° |
| 2026-05-06 13:46 | -25.09752 | -57.49109 | 8202 ft | 266 kts | 42° |
| 2026-05-06 13:46 | -25.08819 | -57.47285 | 9152 ft | 284 kts | 68° |
| 2026-05-06 13:47 | -25.08688 | -57.45058 | 10074 ft | 302 kts | 94° |
| 2026-05-06 13:47 | -25.09409 | -57.42805 | 10632 ft | 328 kts | 117° |
| 2026-05-06 13:47 | -25.10932 | -57.40856 | 10942 ft | 354 kts | 139° |
| 2026-05-06 13:47 | -25.13149 | -57.39520 | 11239 ft | 375 kts | 161° |
| 2026-05-06 13:48 | -25.15775 | -57.39065 | 11509 ft | 391 kts | 181° |
| 2026-05-06 13:48 | -25.18515 | -57.39420 | 11795 ft | 403 kts | 192° |
| 2026-05-06 13:48 | -25.21300 | -57.39985 | 12159 ft | 412 kts | 192° |
| 2026-05-06 13:48 | -25.24134 | -57.40571 | 12649 ft | 416 kts | 192° |
| 2026-05-06 13:49 | -25.26991 | -57.41163 | 13203 ft | 419 kts | 192° |
| 2026-05-06 13:49 | -25.29865 | -57.41749 | 13756 ft | 421 kts | 192° |
| 2026-05-06 13:49 | -25.32756 | -57.42335 | 14252 ft | 424 kts | 192° |
| 2026-05-06 13:49 | -25.35626 | -57.42917 | 14705 ft | 426 kts | 192° |
| 2026-05-06 13:50 | -25.38546 | -57.43507 | 15186 ft | 428 kts | 192° |
| 2026-05-06 13:50 | -25.41483 | -57.44101 | 15667 ft | 430 kts | 193° |
| 2026-05-06 13:50 | -25.44432 | -57.44696 | 16167 ft | 431 kts | 192° |
| 2026-05-06 13:50 | -25.47399 | -57.45236 | 16640 ft | 435 kts | 188° |
| 2026-05-06 13:51 | -25.50443 | -57.45204 | 17096 ft | 440 kts | 177° |
| 2026-05-06 13:51 | -25.53462 | -57.44573 | 17562 ft | 444 kts | 166° |
| 2026-05-06 13:51 | -25.56381 | -57.43400 | 17962 ft | 449 kts | 155° |
| 2026-05-06 13:51 | -25.59114 | -57.41797 | 18363 ft | 451 kts | 156° |
| 2026-05-06 13:52 | -25.62094 | -57.40733 | 18719 ft | 450 kts | 171° |
| 2026-05-06 13:52 | -25.65200 | -57.40535 | 19080 ft | 447 kts | 187° |
| 2026-05-06 13:52 | -25.68244 | -57.41174 | 19457 ft | 445 kts | 197° |
| 2026-05-06 13:52 | -25.71242 | -57.42056 | 19801 ft | 446 kts | 198° |
| 2026-05-06 13:53 | -25.74235 | -57.42971 | 20155 ft | 447 kts | 198° |
| 2026-05-06 13:53 | -25.77242 | -57.43892 | 20500 ft | 449 kts | 198° |
| 2026-05-06 13:53 | -25.80255 | -57.44814 | 20841 ft | 450 kts | 198° |
| 2026-05-06 13:53 | -25.83281 | -57.45737 | 21167 ft | 452 kts | 198° |
| 2026-05-06 13:54 | -25.86276 | -57.46650 | 21495 ft | 453 kts | 198° |
| 2026-05-06 13:54 | -25.89323 | -57.47579 | 21821 ft | 455 kts | 198° |
| 2026-05-06 13:54 | -25.92380 | -57.48511 | 22137 ft | 456 kts | 198° |
| 2026-05-06 13:54 | -25.95444 | -57.49446 | 22453 ft | 458 kts | 198° |
| 2026-05-06 13:55 | -25.98522 | -57.50385 | 22769 ft | 459 kts | 198° |
| 2026-05-06 13:55 | -26.01609 | -57.51327 | 23071 ft | 461 kts | 198° |
| 2026-05-06 13:55 | -26.04707 | -57.52273 | 23371 ft | 462 kts | 198° |
| 2026-05-06 13:55 | -26.07854 | -57.53068 | 23656 ft | 467 kts | 192° |
| 2026-05-06 13:56 | -26.11066 | -57.53414 | 23827 ft | 473 kts | 186° |
| 2026-05-06 13:56 | -26.14361 | -57.53554 | 24045 ft | 475 kts | 184° |
| 2026-05-06 13:56 | -26.17671 | -57.53590 | 24311 ft | 476 kts | 183° |
| 2026-05-06 13:56 | -26.20990 | -57.53586 | 24567 ft | 477 kts | 183° |
| 2026-05-06 13:57 | -26.24317 | -57.53576 | 24811 ft | 478 kts | 183° |
| 2026-05-06 13:57 | -26.27645 | -57.53576 | 25050 ft | 479 kts | 184° |
| 2026-05-06 13:57 | -26.30984 | -57.53590 | 25287 ft | 480 kts | 184° |
| 2026-05-06 13:57 | -26.34324 | -57.53615 | 25534 ft | 481 kts | 184° |
| 2026-05-06 13:58 | -26.37685 | -57.53648 | 25683 ft | 484 kts | 184° |
| 2026-05-06 13:58 | -26.41060 | -57.53686 | 25900 ft | 486 kts | 184° |
| 2026-05-06 13:58 | -26.44398 | -57.53723 | 26135 ft | 486 kts | 185° |
| 2026-05-06 13:58 | -26.47780 | -57.53761 | 26373 ft | 487 kts | 185° |
| 2026-05-06 13:59 | -26.51174 | -57.53799 | 26602 ft | 488 kts | 185° |
| 2026-05-06 13:59 | -26.54568 | -57.53836 | 26812 ft | 489 kts | 185° |
| 2026-05-06 13:59 | -26.57973 | -57.53873 | 27072 ft | 489 kts | 185° |
| 2026-05-06 13:59 | -26.61364 | -57.53909 | 27397 ft | 487 kts | 185° |
| 2026-05-06 14:00 | -26.64757 | -57.53945 | 27653 ft | 487 kts | 185° |
| 2026-05-06 14:00 | -26.68144 | -57.53981 | 27992 ft | 486 kts | 185° |
| 2026-05-06 14:00 | -26.71476 | -57.54016 | 28348 ft | 484 kts | 186° |
| 2026-05-06 14:00 | -26.74831 | -57.54051 | 28706 ft | 482 kts | 186° |
| 2026-05-06 14:01 | -26.78179 | -57.54087 | 29059 ft | 480 kts | 186° |
| 2026-05-06 14:01 | -26.81513 | -57.54123 | 29401 ft | 479 kts | 186° |
| 2026-05-06 14:01 | -26.84842 | -57.54159 | 29760 ft | 477 kts | 186° |
| 2026-05-06 14:01 | -26.88155 | -57.54220 | 30125 ft | 476 kts | 187° |
| 2026-05-06 14:02 | -26.91464 | -57.54308 | 30402 ft | 475 kts | 188° |
| 2026-05-06 14:02 | -26.94758 | -57.54408 | 30727 ft | 473 kts | 188° |
| 2026-05-06 14:02 | -26.98037 | -57.54511 | 31069 ft | 470 kts | 188° |
| 2026-05-06 14:02 | -27.01299 | -57.54612 | 31425 ft | 468 kts | 188° |
| 2026-05-06 14:03 | -27.04506 | -57.54710 | 31781 ft | 466 kts | 188° |
| 2026-05-06 14:03 | -27.07750 | -57.54807 | 31975 ft | 466 kts | 189° |
| 2026-05-06 14:03 | -27.14206 | -57.54996 | 31998 ft | 459 kts | 189° |
| 2026-05-06 14:04 | -27.20645 | -57.55188 | 31999 ft | 467 kts | 189° |
| 2026-05-06 14:04 | -27.27169 | -57.55383 | 32011 ft | 470 kts | 188° |
| 2026-05-06 14:05 | -27.33658 | -57.55570 | 31993 ft | 470 kts | 188° |
| 2026-05-06 14:05 | -27.40193 | -57.55757 | 31995 ft | 470 kts | 189° |
| 2026-05-06 14:06 | -27.46718 | -57.55974 | 31996 ft | 469 kts | 189° |
| 2026-05-06 14:06 | -27.53239 | -57.56246 | 31994 ft | 469 kts | 189° |
| 2026-05-06 14:07 | -27.59711 | -57.56522 | 31993 ft | 469 kts | 189° |
| 2026-05-06 14:07 | -27.66232 | -57.56796 | 31993 ft | 469 kts | 190° |
| 2026-05-06 14:08 | -27.72757 | -57.57067 | 31991 ft | 469 kts | 190° |
| 2026-05-06 14:08 | -27.79280 | -57.57337 | 31990 ft | 469 kts | 189° |
| 2026-05-06 14:09 | -27.85806 | -57.57607 | 31988 ft | 469 kts | 190° |
| 2026-05-06 14:09 | -27.92283 | -57.57876 | 31987 ft | 469 kts | 190° |
| 2026-05-06 14:10 | -27.98807 | -57.58145 | 31986 ft | 469 kts | 190° |
| 2026-05-06 14:10 | -28.05332 | -57.58415 | 31987 ft | 469 kts | 190° |
| 2026-05-06 14:11 | -28.11855 | -57.58687 | 31986 ft | 469 kts | 190° |
| 2026-05-06 14:11 | -28.18380 | -57.58958 | 31983 ft | 470 kts | 190° |
| 2026-05-06 14:12 | -28.24880 | -57.59171 | 31982 ft | 471 kts | 189° |
| 2026-05-06 14:12 | -28.31436 | -57.59315 | 31980 ft | 471 kts | 189° |
| 2026-05-06 14:13 | -28.37986 | -57.59455 | 31979 ft | 471 kts | 189° |
| 2026-05-06 14:13 | -28.44542 | -57.59603 | 31977 ft | 471 kts | 189° |
| 2026-05-06 14:14 | -28.51050 | -57.59757 | 31979 ft | 471 kts | 189° |
| 2026-05-06 14:14 | -28.57604 | -57.59912 | 31974 ft | 471 kts | 189° |
| 2026-05-06 14:15 | -28.64158 | -57.60067 | 31998 ft | 471 kts | 189° |
| 2026-05-06 14:15 | -28.70711 | -57.60222 | 31972 ft | 472 kts | 189° |
| 2026-05-06 14:16 | -28.77276 | -57.60378 | 31976 ft | 472 kts | 189° |
| 2026-05-06 14:16 | -28.83792 | -57.60532 | 31975 ft | 472 kts | 189° |
| 2026-05-06 14:17 | -28.90361 | -57.60687 | 31979 ft | 472 kts | 189° |
| 2026-05-06 14:17 | -28.96927 | -57.60844 | 31972 ft | 472 kts | 189° |
| 2026-05-06 14:18 | -29.03500 | -57.61000 | 31972 ft | 472 kts | 189° |
| 2026-05-06 14:18 | -29.10028 | -57.61156 | 31972 ft | 472 kts | 189° |
| 2026-05-06 14:19 | -29.16601 | -57.61312 | 31975 ft | 472 kts | 189° |
| 2026-05-06 14:19 | -29.23176 | -57.61469 | 31972 ft | 473 kts | 189° |
| 2026-05-06 14:20 | -29.29755 | -57.61622 | 31968 ft | 473 kts | 189° |
| 2026-05-06 14:20 | -29.36292 | -57.61769 | 31969 ft | 473 kts | 189° |
| 2026-05-06 14:21 | -29.42875 | -57.61917 | 31963 ft | 473 kts | 190° |
| 2026-05-06 14:21 | -29.49453 | -57.62066 | 31964 ft | 473 kts | 190° |
| 2026-05-06 14:22 | -29.56030 | -57.62216 | 31965 ft | 472 kts | 190° |
| 2026-05-06 14:22 | -29.62557 | -57.62365 | 31962 ft | 472 kts | 190° |
| 2026-05-06 14:23 | -29.69129 | -57.62516 | 31961 ft | 472 kts | 190° |
| 2026-05-06 14:23 | -29.75705 | -57.62666 | 31964 ft | 472 kts | 190° |
| 2026-05-06 14:24 | -29.82278 | -57.62816 | 31959 ft | 472 kts | 190° |
| 2026-05-06 14:24 | -29.88852 | -57.62967 | 31966 ft | 473 kts | 190° |
| 2026-05-06 14:25 | -29.95383 | -57.63118 | 31959 ft | 473 kts | 190° |
| 2026-05-06 14:25 | -30.01962 | -57.63270 | 31956 ft | 473 kts | 190° |
| 2026-05-06 14:26 | -30.08537 | -57.63420 | 31958 ft | 473 kts | 190° |
| 2026-05-06 14:26 | -30.15114 | -57.63572 | 31959 ft | 473 kts | 189° |
| 2026-05-06 14:27 | -30.21702 | -57.63724 | 31954 ft | 474 kts | 189° |
| 2026-05-06 14:27 | -30.28115 | -57.64491 | 31954 ft | 459 kts | 201° |
| 2026-05-06 14:28 | -30.34252 | -57.66412 | 31958 ft | 455 kts | 205° |
| 2026-05-06 14:28 | -30.40316 | -57.68532 | 31957 ft | 456 kts | 205° |
| 2026-05-06 14:29 | -30.46380 | -57.70687 | 31957 ft | 456 kts | 205° |
| 2026-05-06 14:29 | -30.52419 | -57.72813 | 31944 ft | 456 kts | 205° |
| 2026-05-06 14:30 | -30.58504 | -57.74942 | 31947 ft | 457 kts | 205° |
| 2026-05-06 14:30 | -30.64589 | -57.77070 | 31951 ft | 457 kts | 205° |
| 2026-05-06 14:31 | -30.70667 | -57.79198 | 31943 ft | 456 kts | 205° |
| 2026-05-06 14:31 | -30.76704 | -57.81303 | 31945 ft | 456 kts | 205° |
| 2026-05-06 14:32 | -30.82778 | -57.83418 | 31942 ft | 456 kts | 205° |
| 2026-05-06 14:32 | -30.88858 | -57.85539 | 31941 ft | 456 kts | 205° |
| 2026-05-06 14:33 | -30.94934 | -57.87662 | 31938 ft | 456 kts | 205° |
| 2026-05-06 14:33 | -31.00974 | -57.89777 | 31938 ft | 456 kts | 205° |
| 2026-05-06 14:34 | -31.07053 | -57.91907 | 31935 ft | 456 kts | 205° |
| 2026-05-06 14:34 | -31.13134 | -57.94041 | 31933 ft | 456 kts | 206° |
| 2026-05-06 14:35 | -31.19219 | -57.96181 | 31939 ft | 457 kts | 205° |
| 2026-05-06 14:35 | -31.25321 | -57.98330 | 31938 ft | 458 kts | 205° |
| 2026-05-06 14:36 | -31.31429 | -58.00483 | 31941 ft | 458 kts | 205° |
| 2026-05-06 14:36 | -31.37495 | -58.02622 | 31939 ft | 458 kts | 205° |
| 2026-05-06 14:37 | -31.43601 | -58.04779 | 31950 ft | 459 kts | 206° |
| 2026-05-06 14:37 | -31.49727 | -58.06949 | 31938 ft | 461 kts | 206° |
| 2026-05-06 14:38 | -31.55875 | -58.09128 | 31933 ft | 461 kts | 206° |
| 2026-05-06 14:38 | -31.61978 | -58.11291 | 31932 ft | 461 kts | 206° |
| 2026-05-06 14:39 | -31.68120 | -58.13474 | 31945 ft | 461 kts | 206° |
| 2026-05-06 14:39 | -31.74266 | -58.15659 | 31916 ft | 462 kts | 206° |
| 2026-05-06 14:40 | -31.80414 | -58.17849 | 31919 ft | 462 kts | 206° |
| 2026-05-06 14:40 | -31.86521 | -58.20026 | 31916 ft | 462 kts | 206° |
| 2026-05-06 14:41 | -31.92672 | -58.22222 | 31918 ft | 462 kts | 206° |
| 2026-05-06 14:41 | -31.98819 | -58.24422 | 31905 ft | 462 kts | 206° |
| 2026-05-06 14:42 | -32.04973 | -58.26630 | 31914 ft | 462 kts | 206° |
| 2026-05-06 14:42 | -32.11123 | -58.28837 | 31905 ft | 462 kts | 206° |
| 2026-05-06 14:43 | -32.17233 | -58.31030 | 31908 ft | 462 kts | 206° |
| 2026-05-06 14:43 | -32.23380 | -58.33241 | 31909 ft | 462 kts | 206° |
| 2026-05-06 14:44 | -32.29525 | -58.35455 | 31895 ft | 462 kts | 206° |
| 2026-05-06 14:45 | -32.38751 | -58.38784 | 31890 ft | 462 kts | 206° |
| 2026-05-06 14:45 | -32.44858 | -58.40991 | 31903 ft | 462 kts | 206° |
| 2026-05-06 14:46 | -32.51006 | -58.43215 | 31894 ft | 462 kts | 206° |
| 2026-05-06 14:46 | -32.57159 | -58.45445 | 31885 ft | 462 kts | 206° |
| 2026-05-06 14:47 | -32.63312 | -58.47678 | 31884 ft | 462 kts | 206° |
| 2026-05-06 14:47 | -32.69468 | -58.49917 | 31880 ft | 463 kts | 206° |
| 2026-05-06 14:48 | -32.75592 | -58.52146 | 31886 ft | 464 kts | 205° |
| 2026-05-06 14:48 | -32.81767 | -58.54396 | 31881 ft | 464 kts | 205° |
| 2026-05-06 14:49 | -32.87947 | -58.56651 | 31882 ft | 464 kts | 205° |
| 2026-05-06 14:49 | -32.94117 | -58.58906 | 31884 ft | 464 kts | 205° |
| 2026-05-06 14:50 | -33.00276 | -58.61069 | 31882 ft | 470 kts | 200° |
| 2026-05-06 14:50 | -33.06842 | -58.62072 | 31867 ft | 477 kts | 194° |
| 2026-05-06 14:51 | -33.13458 | -58.62857 | 31866 ft | 478 kts | 194° |
| 2026-05-06 14:51 | -33.20080 | -58.63629 | 31859 ft | 478 kts | 193° |
| 2026-05-06 14:52 | -33.26655 | -58.64392 | 31860 ft | 478 kts | 193° |
| 2026-05-06 14:52 | -33.33272 | -58.65162 | 31859 ft | 478 kts | 193° |
| 2026-05-06 14:53 | -33.39893 | -58.65933 | 31851 ft | 478 kts | 193° |
| 2026-05-06 14:53 | -33.46512 | -58.66705 | 31848 ft | 478 kts | 193° |
| 2026-05-06 14:53 | -33.49813 | -58.67090 | 31736 ft | 475 kts | 193° |
| 2026-05-06 14:54 | -33.53097 | -58.67472 | 31485 ft | 474 kts | 193° |
| 2026-05-06 14:54 | -33.56384 | -58.67858 | 31241 ft | 475 kts | 193° |
| 2026-05-06 14:54 | -33.59635 | -58.68239 | 31001 ft | 476 kts | 193° |
| 2026-05-06 14:54 | -33.62936 | -58.68627 | 30762 ft | 477 kts | 193° |
| 2026-05-06 14:55 | -33.66243 | -58.69015 | 30436 ft | 476 kts | 192° |
| 2026-05-06 14:55 | -33.69537 | -58.69400 | 29428 ft | 476 kts | 192° |
| 2026-05-06 14:55 | -33.72836 | -58.69787 | 28351 ft | 476 kts | 192° |
| 2026-05-06 14:55 | -33.76123 | -58.70172 | 27380 ft | 473 kts | 192° |
| 2026-05-06 14:56 | -33.79392 | -58.70555 | 26405 ft | 471 kts | 192° |
| 2026-05-06 14:56 | -33.82628 | -58.70933 | 25783 ft | 462 kts | 192° |
| 2026-05-06 14:56 | -33.85800 | -58.71303 | 25137 ft | 454 kts | 192° |
| 2026-05-06 14:56 | -33.88877 | -58.71664 | 24485 ft | 448 kts | 192° |
| 2026-05-06 14:57 | -33.91964 | -58.72026 | 23851 ft | 444 kts | 192° |
| 2026-05-06 14:57 | -33.95041 | -58.72356 | 23097 ft | 443 kts | 192° |
| 2026-05-06 14:57 | -33.98108 | -58.72673 | 22355 ft | 441 kts | 191° |
| 2026-05-06 14:57 | -34.01152 | -58.72984 | 21694 ft | 437 kts | 191° |
| 2026-05-06 14:58 | -34.04168 | -58.73293 | 21029 ft | 434 kts | 191° |
| 2026-05-06 14:58 | -34.07166 | -58.73602 | 20382 ft | 430 kts | 191° |
| 2026-05-06 14:58 | -34.10138 | -58.73909 | 19729 ft | 427 kts | 191° |
| 2026-05-06 14:58 | -34.13048 | -58.74209 | 19089 ft | 424 kts | 191° |
| 2026-05-06 14:59 | -34.15980 | -58.74512 | 18451 ft | 422 kts | 191° |
| 2026-05-06 14:59 | -34.18900 | -58.74815 | 17725 ft | 420 kts | 191° |
| 2026-05-06 14:59 | -34.21805 | -58.75116 | 17009 ft | 418 kts | 191° |
| 2026-05-06 14:59 | -34.24692 | -58.75416 | 16324 ft | 414 kts | 191° |
| 2026-05-06 15:00 | -34.27553 | -58.75713 | 15635 ft | 411 kts | 190° |
| 2026-05-06 15:00 | -34.30394 | -58.75986 | 14967 ft | 409 kts | 187° |
| 2026-05-06 15:00 | -34.33243 | -58.75735 | 14251 ft | 416 kts | 171° |
| 2026-05-06 15:00 | -34.35975 | -58.74706 | 13530 ft | 417 kts | 163° |
| 2026-05-06 15:01 | -34.38689 | -58.73476 | 12735 ft | 415 kts | 161° |
| 2026-05-06 15:01 | -34.41376 | -58.72236 | 12005 ft | 411 kts | 160° |
| 2026-05-06 15:01 | -34.44040 | -58.71014 | 11290 ft | 407 kts | 160° |
| 2026-05-06 15:01 | -34.46680 | -58.69809 | 10659 ft | 404 kts | 159° |
| 2026-05-06 15:02 | -34.49257 | -58.68636 | 10461 ft | 385 kts | 159° |
| 2026-05-06 15:02 | -34.51700 | -58.67526 | 10358 ft | 365 kts | 159° |
| 2026-05-06 15:02 | -34.54018 | -58.66473 | 10261 ft | 347 kts | 159° |
| 2026-05-06 15:02 | -34.56228 | -58.65468 | 10146 ft | 332 kts | 159° |
| 2026-05-06 15:03 | -34.58329 | -58.64513 | 10009 ft | 321 kts | 159° |
| 2026-05-06 15:03 | -34.60395 | -58.63574 | 9858 ft | 313 kts | 159° |
| 2026-05-06 15:03 | -34.62452 | -58.62637 | 9293 ft | 320 kts | 158° |
| 2026-05-06 15:03 | -34.64551 | -58.61681 | 8747 ft | 323 kts | 159° |
| 2026-05-06 15:04 | -34.66652 | -58.60724 | 8288 ft | 322 kts | 159° |
| 2026-05-06 15:04 | -34.68743 | -58.59772 | 7864 ft | 319 kts | 159° |
| 2026-05-06 15:04 | -34.70821 | -58.58825 | 7437 ft | 317 kts | 159° |
| 2026-05-06 15:04 | -34.72886 | -58.57883 | 6998 ft | 316 kts | 159° |
| 2026-05-06 15:05 | -34.74914 | -58.56959 | 6604 ft | 313 kts | 159° |
| 2026-05-06 15:05 | -34.76956 | -58.56027 | 6151 ft | 314 kts | 159° |
| 2026-05-06 15:05 | -34.79008 | -58.55091 | 5686 ft | 315 kts | 159° |
| 2026-05-06 15:05 | -34.81046 | -58.54161 | 5249 ft | 312 kts | 159° |
| 2026-05-06 15:06 | -34.83073 | -58.53240 | 4851 ft | 308 kts | 155° |
| 2026-05-06 15:06 | -34.84920 | -58.51983 | 4531 ft | 302 kts | 144° |
| 2026-05-06 15:06 | -34.86655 | -58.50551 | 4207 ft | 299 kts | 143° |
| 2026-05-06 15:06 | -34.88354 | -58.49133 | 3955 ft | 292 kts | 143° |
| 2026-05-06 15:07 | -34.90000 | -58.47771 | 3808 ft | 281 kts | 143° |
| 2026-05-06 15:07 | -34.91563 | -58.46475 | 3672 ft | 271 kts | 143° |
| 2026-05-06 15:07 | -34.93092 | -58.45194 | 3541 ft | 263 kts | 143° |
| 2026-05-06 15:07 | -34.94578 | -58.43952 | 3434 ft | 256 kts | 143° |
| 2026-05-06 15:08 | -34.96036 | -58.42757 | 3300 ft | 250 kts | 147° |
| 2026-05-06 15:08 | -34.97656 | -58.42111 | 3149 ft | 245 kts | 179° |
| 2026-05-06 15:08 | -34.99266 | -58.42525 | 3026 ft | 232 kts | 213° |
| 2026-05-06 15:08 | -35.00387 | -58.43820 | 2924 ft | 220 kts | 248° |
| 2026-05-06 15:09 | -35.00709 | -58.45539 | 2837 ft | 202 kts | 282° |
| 2026-05-06 15:09 | -35.00122 | -58.46944 | 2726 ft | 182 kts | 329° |
| 2026-05-06 15:09 | -34.98957 | -58.47263 | 2684 ft | 172 kts | 0° |
| 2026-05-06 15:09 | -34.97823 | -58.47520 | 2554 ft | 158 kts | 346° |
| 2026-05-06 15:10 | -34.96828 | -58.47862 | 2512 ft | 145 kts | 346° |
| 2026-05-06 15:10 | -34.95879 | -58.48206 | 2341 ft | 140 kts | 345° |
| 2026-05-06 15:10 | -34.95000 | -58.48553 | 2274 ft | 126 kts | 350° |
| 2026-05-06 15:10 | -34.94164 | -58.48721 | 2136 ft | 120 kts | 353° |
| 2026-05-06 15:11 | -34.93375 | -58.48890 | 2055 ft | 107 kts | 347° |
| 2026-05-06 15:11 | -34.92668 | -58.49216 | 2021 ft | 109 kts | 345° |
| 2026-05-06 15:11 | -34.91939 | -58.49542 | 1904 ft | 118 kts | 346° |
| 2026-05-06 15:11 | -34.91121 | -58.49859 | 1746 ft | 127 kts | 347° |
| 2026-05-06 15:12 | -34.90274 | -58.50137 | 1662 ft | 126 kts | 349° |
| 2026-05-06 15:12 | -34.89417 | -58.50394 | 1421 ft | 128 kts | 347° |
| 2026-05-06 15:12 | -34.88568 | -58.50712 | 1137 ft | 127 kts | 343° |
| 2026-05-06 15:12 | -34.87746 | -58.51029 | 956 ft | 122 kts | 346° |
| 2026-05-06 15:13 | -34.86913 | -58.51309 | 860 ft | 126 kts | 349° |
| 2026-05-06 15:13 | -34.86046 | -58.51590 | 707 ft | 132 kts | 350° |
| 2026-05-06 15:13 | -34.85164 | -58.51898 | 532 ft | 132 kts | 351° |
| 2026-05-06 15:13 | -34.84257 | -58.52204 | 314 ft | 137 kts | 348° |
| 2026-05-06 15:14 | -34.83346 | -58.52525 | 119 ft | 133 kts | 348° |
| 2026-05-06 15:14 | -34.82498 | -58.52817 | 90 ft | 111 kts | 343° |
| 2026-05-06 15:14 | -34.81995 | -58.52991 | 88 ft | 53 kts | 345° |
| 2026-05-06 15:14 | -34.81769 | -58.53070 | 88 ft | 27 kts | 343° |
| 2026-05-06 15:15 | -34.81609 | -58.53125 | 89 ft | 17 kts | 344° |
| 2026-05-06 15:15 | -34.81534 | -58.53203 | 88 ft | 14 kts | 309° |
| 2026-05-06 15:15 | -34.81489 | -58.53301 | 87 ft | 14 kts | 298° |
| 2026-05-06 15:15 | -34.81442 | -58.53406 | 84 ft | 14 kts | 297° |
| 2026-05-06 15:16 | -34.81399 | -58.53504 | 86 ft | 12 kts | 299° |
| 2026-05-06 15:16 | -34.81397 | -58.53589 | 87 ft | 10 kts | 231° |
| 2026-05-06 15:16 | -34.81396 | -58.53649 | 85 ft | 6 kts | 300° |
| 2026-05-06 15:16 | -34.81380 | -58.53675 | 85 ft | 2 kts | 308° |
| 2026-05-06 15:17 | -34.81372 | -58.53687 | 84 ft | 2 kts | 309° |
| 2026-05-06 15:17 | -34.81364 | -58.53698 | 85 ft | 0 kts | 309° |